Time;durP1;ratioP1;P1;durP2;ratioP2;P2;SDS_P1;SDS_P2;PMS_P1;PMS_P2;Temp;Humidity;BMP_temperature;BMP_pressure;BME280_temperature;BME280_humidity;BME280_pressure;Samples;Min_cycle;Max_cycle;Signal;HPM_P1;HPM_P2
2021/06/23 00:01:43;;;;;;;17.77;5.00;;;20.10;99.90;;;;;;5097479;28;20367;-86
2021/06/23 00:04:09;;;;;;;12.20;5.82;;;20.10;99.90;;;;;;5098966;28;20035;-85
2021/06/23 00:06:34;;;;;;;12.85;5.32;;;20.10;99.90;;;;;;5098296;28;20032;-84
2021/06/23 00:09:00;;;;;;;11.23;5.70;;;20.10;99.90;;;;;;5097491;28;20491;-89
2021/06/23 00:11:37;;;;;;;11.93;5.85;;;20.10;99.90;;;;;;5097781;28;20043;-85
2021/06/23 00:14:03;;;;;;;9.93;5.38;;;20.10;99.90;;;;;;5099823;28;20095;-84
2021/06/23 00:16:29;;;;;;;13.77;5.95;;;20.10;99.90;;;;;;5097742;28;20051;-86
2021/06/23 00:18:54;;;;;;;15.65;5.70;;;20.10;99.90;;;;;;5097225;28;20024;-90
2021/06/23 00:21:20;;;;;;;13.10;5.95;;;20.10;99.90;;;;;;5095459;28;20056;-85
2021/06/23 00:23:46;;;;;;;11.25;5.72;;;20.10;99.90;;;;;;5094585;28;20060;-85
2021/06/23 00:26:11;;;;;;;9.98;4.85;;;20.00;99.90;;;;;;5100692;28;20028;-87
2021/06/23 00:28:37;;;;;;;9.77;4.97;;;20.00;99.90;;;;;;5095474;28;20484;-84
2021/06/23 00:31:02;;;;;;;11.27;5.07;;;20.00;99.90;;;;;;5096476;28;20031;-85
2021/06/23 00:33:32;;;;;;;10.93;4.97;;;20.00;99.90;;;;;;5097965;28;20064;-86
2021/06/23 00:35:57;;;;;;;8.00;4.80;;;20.00;99.90;;;;;;5097614;28;20391;-87
2021/06/23 00:38:23;;;;;;;10.80;4.50;;;19.90;99.90;;;;;;5095720;28;20016;-85
2021/06/23 00:40:48;;;;;;;10.52;5.22;;;19.90;99.90;;;;;;5095912;28;20028;-86
2021/06/23 00:43:14;;;;;;;9.40;4.75;;;19.90;99.90;;;;;;5095341;28;20514;-90
2021/06/23 00:45:41;;;;;;;8.60;4.63;;;19.90;99.90;;;;;;5095225;28;20032;-85
2021/06/23 00:48:09;;;;;;;8.52;4.93;;;19.90;99.90;;;;;;5096079;28;20050;-85
2021/06/23 00:50:37;;;;;;;9.98;4.80;;;19.80;99.90;;;;;;5097019;28;20498;-86
2021/06/23 00:53:03;;;;;;;13.13;5.72;;;19.80;99.90;;;;;;5096886;28;20084;-86
2021/06/23 00:55:29;;;;;;;14.75;5.28;;;19.80;99.90;;;;;;5094655;28;20055;-86
2021/06/23 00:57:55;;;;;;;11.85;5.43;;;19.70;99.90;;;;;;5094309;28;20040;-85
2021/06/23 01:00:28;;;;;;;13.80;5.68;;;19.70;99.90;;;;;;5095007;28;20024;-89
2021/06/23 01:02:54;;;;;;;17.13;5.57;;;19.70;99.90;;;;;;5094686;28;20020;-88
2021/06/23 01:05:20;;;;;;;12.45;5.80;;;19.70;99.90;;;;;;5095353;28;20028;-85
2021/06/23 01:07:47;;;;;;;10.45;5.35;;;19.70;99.90;;;;;;5094633;28;20020;-85
2021/06/23 01:10:13;;;;;;;16.33;6.00;;;19.80;99.90;;;;;;5094156;28;20032;-85
2021/06/23 01:12:57;;;;;;;13.05;5.65;;;19.70;99.90;;;;;;5094835;28;20020;-85
2021/06/23 01:15:24;;;;;;;9.55;5.25;;;19.70;99.90;;;;;;5094661;28;20463;-87
2021/06/23 01:17:51;;;;;;;12.00;5.07;;;19.70;99.90;;;;;;5095980;28;20466;-85
2021/06/23 01:20:17;;;;;;;9.30;5.35;;;19.70;99.90;;;;;;5095287;28;20051;-86
2021/06/23 01:22:44;;;;;;;11.98;5.82;;;19.70;99.90;;;;;;5093409;28;20735;-86
2021/06/23 01:25:12;;;;;;;13.40;5.72;;;19.50;99.90;;;;;;5095567;28;20071;-84
2021/06/23 01:27:40;;;;;;;10.77;5.47;;;19.60;99.90;;;;;;5097251;28;20023;-85
2021/06/23 01:30:06;;;;;;;14.23;5.90;;;19.60;99.90;;;;;;5099081;28;20115;-85
2021/06/23 01:32:33;;;;;;;12.95;5.75;;;19.60;99.90;;;;;;5098195;28;20016;-91
2021/06/23 01:35:00;;;;;;;11.35;5.10;;;19.60;99.90;;;;;;5097616;28;20079;-86
2021/06/23 01:37:25;;;;;;;7.82;5.15;;;19.60;99.90;;;;;;5097724;28;20475;-84
2021/06/23 01:39:51;;;;;;;10.55;5.78;;;19.50;99.90;;;;;;5096668;28;20037;-85
2021/06/23 01:42:17;;;;;;;8.40;5.10;;;19.50;99.90;;;;;;5098423;28;20021;-90
2021/06/23 01:44:43;;;;;;;12.70;5.60;;;19.50;99.90;;;;;;5098464;28;20038;-85
2021/06/23 01:47:08;;;;;;;12.05;5.20;;;19.50;99.90;;;;;;5097520;28;20020;-86
2021/06/23 01:49:34;;;;;;;8.73;5.32;;;19.50;99.90;;;;;;5097202;28;20036;-88
2021/06/23 01:52:00;;;;;;;11.45;5.57;;;19.50;99.90;;;;;;5099534;28;20031;-87
2021/06/23 01:54:26;;;;;;;12.05;5.60;;;19.50;99.90;;;;;;5096211;28;20115;-86
2021/06/23 01:56:51;;;;;;;15.27;5.78;;;19.50;99.90;;;;;;5096759;28;20040;-85
2021/06/23 01:59:17;;;;;;;10.32;6.25;;;19.50;99.90;;;;;;5096364;28;20470;-84
2021/06/23 02:02:04;;;;;;;12.65;6.20;;;19.40;99.90;;;;;;5097203;28;20024;-84
2021/06/23 02:04:53;;;;;;;13.65;6.00;;;19.30;99.90;;;;;;5095953;28;20032;-85
2021/06/23 02:07:44;;;;;;;11.43;5.88;;;19.40;99.90;;;;;;5096438;28;20026;-85
2021/06/23 02:10:33;;;;;;;16.73;6.22;;;19.30;99.90;;;;;;5096307;28;20016;-85
2021/06/23 02:13:21;;;;;;;11.32;6.07;;;19.30;99.90;;;;;;5097182;28;20028;-85
2021/06/23 02:15:48;;;;;;;13.57;5.95;;;19.30;99.90;;;;;;5098042;28;20024;-89
2021/06/23 02:18:15;;;;;;;15.85;6.72;;;19.20;99.90;;;;;;5096028;28;20073;-84
2021/06/23 02:20:42;;;;;;;11.90;6.00;;;19.20;99.90;;;;;;5096222;28;20028;-85
2021/06/23 02:23:10;;;;;;;10.43;5.65;;;19.20;99.90;;;;;;5096544;28;20020;-84
2021/06/23 02:25:37;;;;;;;13.13;5.35;;;19.20;99.90;;;;;;5097465;28;20161;-85
2021/06/23 02:28:03;;;;;;;9.00;5.68;;;19.10;99.90;;;;;;5096306;28;20051;-85
2021/06/23 02:30:29;;;;;;;12.45;5.65;;;19.10;99.90;;;;;;5096708;28;20020;-85
2021/06/23 02:32:55;;;;;;;11.80;5.60;;;19.10;99.90;;;;;;5095381;28;20020;-85
2021/06/23 02:35:24;;;;;;;11.77;5.35;;;18.90;99.90;;;;;;5096439;28;20092;-86
2021/06/23 02:37:51;;;;;;;11.98;5.03;;;19.00;99.90;;;;;;5096695;28;20024;-86
2021/06/23 02:40:18;;;;;;;12.38;5.25;;;19.00;99.90;;;;;;5096493;28;20028;-85
2021/06/23 02:42:45;;;;;;;12.82;4.85;;;18.90;99.90;;;;;;5096409;28;20020;-85
2021/06/23 02:45:13;;;;;;;9.32;4.55;;;18.90;99.90;;;;;;5096216;28;20121;-84
2021/06/23 02:47:39;;;;;;;8.60;4.47;;;18.90;99.90;;;;;;5095287;28;20016;-84
2021/06/23 02:50:06;;;;;;;11.25;4.65;;;19.00;99.90;;;;;;5096583;28;20024;-85
2021/06/23 02:52:34;;;;;;;5.72;3.92;;;18.90;99.90;;;;;;5096136;28;20463;-85
2021/06/23 02:55:02;;;;;;;7.93;4.70;;;18.90;99.90;;;;;;5103864;28;20454;-91
2021/06/23 02:57:28;;;;;;;8.30;4.90;;;18.80;99.90;;;;;;5100857;28;20047;-84
2021/06/23 02:59:54;;;;;;;13.30;6.50;;;18.80;99.90;;;;;;5095961;28;20028;-85
2021/06/23 03:02:20;;;;;;;10.70;6.03;;;18.80;99.90;;;;;;5094980;28;20024;-84
2021/06/23 03:04:47;;;;;;;12.60;6.53;;;18.80;99.90;;;;;;5095100;28;20084;-85
2021/06/23 03:07:14;;;;;;;14.00;6.00;;;18.80;99.90;;;;;;5098525;28;20079;-90
2021/06/23 03:09:43;;;;;;;11.90;6.97;;;18.80;99.90;;;;;;5099456;28;20032;-85
2021/06/23 03:12:10;;;;;;;11.98;5.72;;;18.80;99.90;;;;;;5095474;28;20028;-86
2021/06/23 03:14:35;;;;;;;11.27;6.00;;;18.80;99.90;;;;;;5095353;28;20335;-85
2021/06/23 03:17:01;;;;;;;16.88;5.78;;;18.80;99.90;;;;;;5094940;28;20429;-85
2021/06/23 03:19:27;;;;;;;11.35;5.47;;;18.90;99.90;;;;;;5094706;28;20028;-86
2021/06/23 03:21:53;;;;;;;8.55;5.82;;;18.90;99.90;;;;;;5094895;28;20031;-85
2021/06/23 03:24:18;;;;;;;8.98;5.82;;;18.90;99.90;;;;;;5095325;28;20031;-85
2021/06/23 03:26:44;;;;;;;13.10;5.93;;;18.90;99.90;;;;;;5095386;28;20390;-85
2021/06/23 03:29:31;;;;;;;12.27;6.43;;;18.90;99.90;;;;;;5095704;28;20136;-85
2021/06/23 03:31:57;;;;;;;8.50;6.00;;;18.90;99.90;;;;;;5101860;28;20024;-86
2021/06/23 03:34:24;;;;;;;15.05;6.50;;;18.90;99.90;;;;;;5102420;28;20091;-86
2021/06/23 03:36:49;;;;;;;9.98;6.05;;;18.90;99.90;;;;;;5102290;28;20080;-85
2021/06/23 03:39:15;;;;;;;17.20;6.50;;;18.90;99.90;;;;;;5100753;28;20052;-85
2021/06/23 03:41:41;;;;;;;17.27;6.78;;;18.90;99.90;;;;;;5098023;28;20020;-85
2021/06/23 03:44:07;;;;;;;14.15;6.50;;;19.00;99.90;;;;;;5094558;28;20036;-85
2021/06/23 03:46:32;;;;;;;10.98;6.10;;;19.10;99.90;;;;;;5095951;28;20109;-85
2021/06/23 03:48:58;;;;;;;10.68;6.15;;;19.10;99.90;;;;;;5094031;28;20147;-84
2021/06/23 03:51:25;;;;;;;15.35;6.60;;;19.20;99.90;;;;;;5093621;28;20028;-84
2021/06/23 03:53:50;;;;;;;9.27;6.45;;;19.20;99.90;;;;;;5094431;28;20020;-87
2021/06/23 03:56:16;;;;;;;12.07;6.80;;;19.30;99.90;;;;;;5094178;28;20464;-86
2021/06/23 03:58:42;;;;;;;11.48;6.85;;;19.30;99.90;;;;;;5094002;28;20043;-84
2021/06/23 04:01:09;;;;;;;13.05;6.47;;;19.40;99.90;;;;;;5093901;28;20027;-84
2021/06/23 04:03:34;;;;;;;14.02;6.72;;;19.30;99.90;;;;;;5093724;28;20020;-85
2021/06/23 04:06:00;;;;;;;15.18;7.40;;;19.40;99.90;;;;;;5093556;28;20547;-86
2021/06/23 04:08:26;;;;;;;11.85;6.57;;;19.40;99.90;;;;;;5094008;28;20455;-85
2021/06/23 04:10:51;;;;;;;12.07;6.60;;;19.50;99.90;;;;;;5094004;28;20065;-84
2021/06/23 04:13:17;;;;;;;10.95;7.07;;;19.50;99.90;;;;;;5093884;28;20020;-84
2021/06/23 04:15:43;;;;;;;18.40;8.73;;;19.60;99.90;;;;;;5093919;28;20060;-85
2021/06/23 04:18:08;;;;;;;13.50;9.07;;;19.60;99.90;;;;;;5094167;28;20020;-85
2021/06/23 04:20:34;;;;;;;11.65;7.30;;;19.70;99.90;;;;;;5093477;28;20039;-87
2021/06/23 04:23:00;;;;;;;14.38;6.78;;;19.70;99.90;;;;;;5093451;28;20099;-84
2021/06/23 04:25:25;;;;;;;15.05;6.80;;;19.80;99.90;;;;;;5093495;28;20028;-84
2021/06/23 04:27:51;;;;;;;17.77;8.10;;;19.90;99.90;;;;;;5093326;28;20054;-84
2021/06/23 04:30:18;;;;;;;20.85;13.35;;;19.90;99.90;;;;;;5094293;28;20031;-85
2021/06/23 04:32:44;;;;;;;14.98;8.45;;;20.00;99.90;;;;;;5094357;28;20028;-84
2021/06/23 04:35:10;;;;;;;25.75;20.77;;;20.00;99.90;;;;;;5093870;28;20119;-86
2021/06/23 04:37:39;;;;;;;15.98;10.13;;;20.10;99.90;;;;;;5093640;28;20471;-84
2021/06/23 04:40:09;;;;;;;20.98;13.32;;;20.10;99.90;;;;;;5093038;28;20035;-83
2021/06/23 04:42:34;;;;;;;15.18;9.25;;;20.30;99.90;;;;;;5091807;28;21071;-78
2021/06/23 04:45:00;;;;;;;17.45;10.68;;;20.30;99.90;;;;;;5092706;28;20071;-76
2021/06/23 04:47:26;;;;;;;11.32;7.63;;;21.30;99.90;;;;;;5093955;28;20024;-79
2021/06/23 04:49:51;;;;;;;13.80;7.47;;;21.80;99.90;;;;;;5095252;28;20026;-78
2021/06/23 04:52:17;;;;;;;17.17;7.63;;;22.50;99.90;;;;;;5095904;28;20070;-80
2021/06/23 04:54:43;;;;;;;15.93;10.57;;;22.80;99.90;;;;;;5092502;28;20028;-78
2021/06/23 04:57:09;;;;;;;15.77;8.68;;;22.90;99.90;;;;;;5091940;28;20044;-86
2021/06/23 04:59:35;;;;;;;13.98;7.78;;;22.60;99.90;;;;;;5094937;28;20052;-79
2021/06/23 05:02:00;;;;;;;9.77;6.20;;;22.60;99.90;;;;;;5096684;28;20059;-81
2021/06/23 05:04:26;;;;;;;14.52;6.65;;;22.70;99.90;;;;;;5096473;28;20448;-80
2021/06/23 05:06:52;;;;;;;15.75;7.22;;;22.70;99.90;;;;;;5096209;28;20095;-80
2021/06/23 05:09:17;;;;;;;12.25;6.18;;;22.80;99.90;;;;;;5096355;28;20027;-81
2021/06/23 05:11:43;;;;;;;8.65;5.97;;;22.90;99.90;;;;;;5097730;28;20348;-88
2021/06/23 05:14:10;;;;;;;12.05;6.30;;;23.00;99.90;;;;;;5098694;28;20027;-88
2021/06/23 05:16:37;;;;;;;11.93;6.00;;;23.20;99.90;;;;;;5095146;28;20020;-87
2021/06/23 05:19:03;;;;;;;15.05;6.32;;;23.30;99.90;;;;;;5095137;28;20054;-78
2021/06/23 05:21:33;;;;;;;13.15;6.00;;;23.40;99.90;;;;;;5094618;28;20032;-79
2021/06/23 05:23:59;;;;;;;11.10;6.15;;;23.50;99.90;;;;;;5094593;27;20020;-80
2021/06/23 05:26:25;;;;;;;13.00;6.43;;;23.50;99.90;;;;;;5096166;28;20478;-79
2021/06/23 05:28:51;;;;;;;11.85;5.35;;;23.40;99.90;;;;;;5096064;28;20016;-79
2021/06/23 05:31:16;;;;;;;11.50;5.90;;;23.60;99.90;;;;;;5095783;28;20024;-86
2021/06/23 05:33:42;;;;;;;14.10;5.75;;;23.90;99.90;;;;;;5094586;28;20024;-78
2021/06/23 05:36:08;;;;;;;15.13;6.68;;;24.20;99.90;;;;;;5094610;28;20371;-86
2021/06/23 05:38:33;;;;;;;12.15;5.97;;;24.30;99.90;;;;;;5094784;28;20081;-80
2021/06/23 05:40:59;;;;;;;10.65;5.72;;;24.10;99.90;;;;;;5095449;28;20371;-87
2021/06/23 05:43:25;;;;;;;11.10;5.22;;;24.30;99.90;;;;;;5095469;28;20024;-78
2021/06/23 05:45:50;;;;;;;12.00;5.53;;;24.50;99.90;;;;;;5095613;28;20073;-78
2021/06/23 05:48:16;;;;;;;9.68;5.30;;;24.60;99.90;;;;;;5095778;28;20425;-80
2021/06/23 05:50:43;;;;;;;10.85;6.03;;;24.70;99.90;;;;;;5094409;28;20441;-81
2021/06/23 05:53:09;;;;;;;11.82;6.00;;;24.90;99.90;;;;;;5095354;28;20008;-78
2021/06/23 05:55:36;;;;;;;10.73;5.20;;;25.00;99.90;;;;;;5095418;28;20508;-77
2021/06/23 05:58:02;;;;;;;10.48;5.97;;;25.00;99.90;;;;;;5095365;28;20040;-78
2021/06/23 06:00:27;;;;;;;7.72;5.13;;;25.20;99.90;;;;;;5095149;28;20485;-79
2021/06/23 06:02:53;;;;;;;7.30;5.53;;;25.20;99.90;;;;;;5093663;28;20032;-78
2021/06/23 06:05:19;;;;;;;13.52;4.95;;;25.30;99.90;;;;;;5094108;28;20036;-79
2021/06/23 06:07:44;;;;;;;10.52;5.22;;;25.50;99.90;;;;;;5095416;28;20082;-77
2021/06/23 06:10:11;;;;;;;8.75;5.18;;;25.60;99.90;;;;;;5092641;28;20116;-80
2021/06/23 06:12:37;;;;;;;9.55;5.22;;;25.40;99.90;;;;;;5093658;28;20028;-79
2021/06/23 06:15:03;;;;;;;9.25;5.35;;;25.40;99.90;;;;;;5094156;28;20143;-79
2021/06/23 06:17:29;;;;;;;8.15;4.65;;;25.40;99.90;;;;;;5095247;28;20035;-78
2021/06/23 06:19:55;;;;;;;7.40;4.97;;;25.40;99.90;;;;;;5094096;28;20043;-80
2021/06/23 06:22:21;;;;;;;6.80;5.55;;;25.60;99.90;;;;;;5093759;28;20027;-80
2021/06/23 06:24:46;;;;;;;7.90;4.97;;;25.70;99.90;;;;;;5093594;28;20043;-79
2021/06/23 06:27:12;;;;;;;9.48;4.82;;;25.80;99.90;;;;;;5093391;28;20458;-78
2021/06/23 06:29:38;;;;;;;7.25;5.15;;;26.00;99.90;;;;;;5094955;28;20066;-78
2021/06/23 06:32:04;;;;;;;7.93;5.32;;;26.00;99.90;;;;;;5094726;28;20467;-78
2021/06/23 06:34:29;;;;;;;7.53;5.25;;;26.20;99.90;;;;;;5095234;28;20028;-78
2021/06/23 06:36:55;;;;;;;8.15;5.10;;;26.10;99.90;;;;;;5093726;28;20016;-79
2021/06/23 06:39:21;;;;;;;7.45;5.35;;;26.00;99.90;;;;;;5094580;28;20031;-76
2021/06/23 06:41:46;;;;;;;7.45;4.75;;;26.10;99.60;;;;;;5093509;28;20467;-81
2021/06/23 06:44:12;;;;;;;10.48;5.85;;;26.20;99.30;;;;;;5095195;28;20034;-83
2021/06/23 06:46:37;;;;;;;8.23;5.53;;;26.40;99.60;;;;;;5094762;28;20032;-79
2021/06/23 06:49:04;;;;;;;6.38;5.00;;;26.50;99.80;;;;;;5093393;28;20025;-82
2021/06/23 06:51:30;;;;;;;8.20;5.40;;;26.70;99.20;;;;;;5094355;28;20430;-78
2021/06/23 06:53:56;;;;;;;6.60;5.22;;;26.50;97.90;;;;;;5093951;28;20028;-79
2021/06/23 06:56:22;;;;;;;10.40;5.25;;;26.60;98.00;;;;;;5093126;28;20031;-80
2021/06/23 06:58:47;;;;;;;6.47;5.20;;;26.70;99.00;;;;;;5094437;28;20039;-80
2021/06/23 07:01:13;;;;;;;7.07;5.75;;;26.90;97.10;;;;;;5094043;28;20035;-80
2021/06/23 07:03:39;;;;;;;7.10;5.03;;;27.00;98.30;;;;;;5093153;28;20527;-81
2021/06/23 07:06:04;;;;;;;7.25;5.40;;;27.00;97.50;;;;;;5092910;28;20051;-78
2021/06/23 07:08:30;;;;;;;8.90;5.40;;;27.20;97.10;;;;;;5093760;28;20482;-79
2021/06/23 07:10:56;;;;;;;6.13;4.72;;;27.40;97.90;;;;;;5092971;28;20143;-83
2021/06/23 07:13:22;;;;;;;7.70;5.15;;;27.50;96.40;;;;;;5094221;28;20032;-79
2021/06/23 07:15:48;;;;;;;10.57;5.55;;;27.50;95.70;;;;;;5093001;28;20032;-80
2021/06/23 07:18:13;;;;;;;7.13;5.50;;;27.40;94.70;;;;;;5092672;28;20034;-80
2021/06/23 07:20:39;;;;;;;5.90;5.35;;;27.60;96.90;;;;;;5092826;28;20028;-79
2021/06/23 07:23:04;;;;;;;6.70;5.20;;;27.80;96.50;;;;;;5091946;28;20024;-80
2021/06/23 07:25:30;;;;;;;8.25;4.72;;;27.80;96.60;;;;;;5093153;28;20123;-86
2021/06/23 07:27:56;;;;;;;5.80;4.82;;;27.90;94.70;;;;;;5095256;28;20028;-77
2021/06/23 07:30:23;;;;;;;6.85;4.88;;;28.10;95.00;;;;;;5093168;28;20384;-79
2021/06/23 07:38:01;;;;;;;7.60;4.65;;;28.50;94.40;;;;;;5093544;28;20077;-80
2021/06/23 07:43:11;;;;;;;6.13;4.88;;;28.30;93.40;;;;;;5093930;28;20039;-78
2021/06/23 07:45:42;;;;;;;7.40;5.10;;;28.30;92.40;;;;;;5092752;28;20038;-80
2021/06/23 07:48:08;;;;;;;7.53;4.93;;;28.50;92.60;;;;;;5093604;28;20016;-80
2021/06/23 07:50:43;;;;;;;8.15;4.40;;;28.50;92.60;;;;;;5093187;28;20523;-80
2021/06/23 07:53:16;;;;;;;8.27;4.68;;;28.60;93.20;;;;;;5093083;28;20020;-77
2021/06/23 07:55:50;;;;;;;10.00;4.90;;;28.70;92.80;;;;;;5083574;28;20426;-82
2021/06/23 08:11:42;;;;;;;10.90;4.80;;;28.80;90.40;;;;;;5073835;28;20031;-76
2021/06/23 08:14:08;;;;;;;7.47;4.47;;;28.90;91.80;;;;;;5072699;28;20025;-78
2021/06/23 08:16:36;;;;;;;9.52;4.60;;;29.10;92.80;;;;;;5072917;28;20029;-76
2021/06/23 08:19:03;;;;;;;10.43;4.85;;;29.40;91.20;;;;;;5072685;28;20020;-77
2021/06/23 08:21:29;;;;;;;9.43;4.63;;;29.60;91.00;;;;;;5073504;28;20029;-77
2021/06/23 08:23:54;;;;;;;9.23;5.00;;;29.30;90.20;;;;;;5073624;28;20031;-78
2021/06/23 08:26:20;;;;;;;9.20;5.15;;;28.90;90.90;;;;;;5088798;28;20083;-82
2021/06/23 08:28:46;;;;;;;9.32;5.03;;;28.90;92.00;;;;;;5092029;28;20081;-77
2021/06/23 08:31:12;;;;;;;9.25;5.28;;;29.00;90.80;;;;;;5091074;28;20032;-79
2021/06/23 08:33:38;;;;;;;9.18;4.80;;;29.00;92.40;;;;;;5090897;28;20111;-79
2021/06/23 08:36:05;;;;;;;6.75;5.18;;;29.20;91.70;;;;;;5091162;28;20028;-77
2021/06/23 08:38:31;;;;;;;11.60;4.95;;;29.30;90.90;;;;;;5091328;28;20082;-79
2021/06/23 08:40:56;;;;;;;9.65;5.13;;;29.40;91.20;;;;;;5092135;28;20475;-81
2021/06/23 08:43:22;;;;;;;7.32;5.15;;;29.30;89.90;;;;;;5092195;28;20467;-78
2021/06/23 08:45:48;;;;;;;8.90;5.00;;;29.60;92.00;;;;;;5092160;28;20036;-78
2021/06/23 08:48:14;;;;;;;10.52;4.93;;;29.50;90.40;;;;;;5092138;28;20455;-78
2021/06/23 08:50:41;;;;;;;10.30;5.30;;;29.60;90.40;;;;;;5092190;28;20020;-79
2021/06/23 08:53:08;;;;;;;10.75;5.25;;;29.70;90.70;;;;;;5091203;28;20789;-79
2021/06/23 08:55:35;;;;;;;8.35;4.60;;;29.70;89.50;;;;;;5091048;28;20024;-79
2021/06/23 08:58:02;;;;;;;6.60;4.50;;;29.90;90.10;;;;;;5090813;28;20063;-80
2021/06/23 09:00:29;;;;;;;6.72;5.10;;;30.00;85.40;;;;;;5092184;28;20471;-81
2021/06/23 09:03:08;;;;;;;9.02;3.90;;;30.00;87.00;;;;;;5091142;28;20028;-78
2021/06/23 09:05:48;;;;;;;7.38;4.07;;;30.20;83.00;;;;;;5091537;28;20036;-78
2021/06/23 09:08:34;;;;;;;10.77;4.15;;;30.10;77.80;;;;;;5090911;28;20020;-79
2021/06/23 09:11:03;;;;;;;11.65;4.20;;;30.30;77.40;;;;;;5091931;28;20028;-78
2021/06/23 09:13:29;;;;;;;8.77;4.22;;;30.50;75.90;;;;;;5090756;28;20028;-78
2021/06/23 09:15:59;;;;;;;9.52;3.60;;;30.70;73.80;;;;;;5090539;28;20467;-80
2021/06/23 09:18:34;;;;;;;11.43;3.60;;;30.70;71.10;;;;;;5078632;28;20039;-80
2021/06/23 09:21:20;;;;;;;9.95;4.35;;;30.60;72.70;;;;;;5072542;28;20074;-80
2021/06/23 09:23:51;;;;;;;7.85;3.80;;;30.50;78.40;;;;;;5070650;28;20032;-79
2021/06/23 09:26:22;;;;;;;9.45;4.00;;;30.60;76.20;;;;;;5071682;28;20036;-80
2021/06/23 09:29:11;;;;;;;8.82;4.18;;;30.70;77.10;;;;;;5070478;28;20051;-78
2021/06/23 09:32:04;;;;;;;10.02;4.50;;;30.60;79.20;;;;;;5070204;28;20021;-79
2021/06/23 09:34:47;;;;;;;8.30;4.75;;;30.60;77.50;;;;;;5070769;28;20020;-80
2021/06/23 09:37:27;;;;;;;9.55;4.68;;;30.20;76.80;;;;;;5072698;28;20487;-79
2021/06/23 09:40:13;;;;;;;6.38;4.50;;;30.10;77.50;;;;;;5071462;28;20025;-78
2021/06/23 09:43:00;;;;;;;11.18;4.50;;;30.20;78.00;;;;;;5071986;28;20021;-80
2021/06/23 09:45:26;;;;;;;9.00;4.60;;;30.40;78.90;;;;;;5072353;28;20139;-80
2021/06/23 09:48:05;;;;;;;9.55;4.15;;;30.60;80.10;;;;;;5074188;28;20109;-78
2021/06/23 09:50:33;;;;;;;9.68;4.35;;;30.90;79.00;;;;;;5073838;28;20029;-78
2021/06/23 09:53:13;;;;;;;8.20;4.47;;;31.00;76.60;;;;;;5073893;28;20027;-76
2021/06/23 09:55:47;;;;;;;7.60;4.43;;;30.90;79.50;;;;;;5075364;28;20024;-78
2021/06/23 09:58:22;;;;;;;11.60;4.75;;;31.00;78.00;;;;;;5073745;28;20124;-79
2021/06/23 10:00:59;;;;;;;13.85;4.55;;;30.90;77.00;;;;;;5074391;28;20035;-77
2021/06/23 10:03:26;;;;;;;9.02;4.15;;;31.00;77.60;;;;;;5074430;28;20067;-75
2021/06/23 10:05:54;;;;;;;9.70;3.85;;;31.10;77.00;;;;;;5074111;28;20471;-75
2021/06/23 10:08:21;;;;;;;9.88;4.57;;;31.20;78.50;;;;;;5074433;28;20024;-80
2021/06/23 10:10:47;;;;;;;6.93;3.83;;;31.30;72.80;;;;;;5074211;28;20551;-75
2021/06/23 10:13:15;;;;;;;10.57;4.85;;;31.30;75.50;;;;;;5074465;28;20119;-77
2021/06/23 10:15:41;;;;;;;8.70;3.60;;;31.20;75.50;;;;;;5075375;28;20082;-77
2021/06/23 10:18:07;;;;;;;7.68;4.28;;;31.20;73.20;;;;;;5074055;28;20525;-78
2021/06/23 10:20:34;;;;;;;7.72;4.35;;;31.20;74.90;;;;;;5073874;28;20036;-78
2021/06/23 10:23:03;;;;;;;10.98;4.07;;;31.20;76.20;;;;;;5073874;28;20040;-76
2021/06/23 10:25:30;;;;;;;8.05;3.83;;;31.40;74.20;;;;;;5073754;28;20041;-76
2021/06/23 10:27:56;;;;;;;11.27;3.90;;;31.50;75.00;;;;;;5073881;28;20024;-76
2021/06/23 10:30:28;;;;;;;9.38;3.92;;;31.40;69.30;;;;;;5073837;28;20031;-78
2021/06/23 10:32:55;;;;;;;9.07;4.32;;;31.50;73.70;;;;;;5074096;28;20025;-77
2021/06/23 10:35:22;;;;;;;9.57;4.20;;;31.70;73.50;;;;;;5073986;28;20033;-77
2021/06/23 10:37:49;;;;;;;8.93;4.20;;;31.60;73.10;;;;;;5073474;28;20029;-77
2021/06/23 10:40:16;;;;;;;8.93;4.43;;;31.80;71.50;;;;;;5073453;28;20039;-76
2021/06/23 10:42:42;;;;;;;9.10;3.95;;;31.90;67.80;;;;;;5075096;28;20020;-79
2021/06/23 10:45:09;;;;;;;7.25;3.80;;;31.90;67.90;;;;;;5073442;28;20057;-75
2021/06/23 10:47:41;;;;;;;8.95;3.90;;;31.80;69.50;;;;;;5073030;28;20345;-77
2021/06/23 10:50:28;;;;;;;15.68;4.47;;;31.80;70.30;;;;;;5073336;28;20025;-76
2021/06/23 10:52:54;;;;;;;14.13;4.22;;;31.50;67.90;;;;;;5073156;28;20066;-77
2021/06/23 10:55:20;;;;;;;7.25;4.07;;;31.20;70.00;;;;;;5073424;28;20067;-77
2021/06/23 10:57:48;;;;;;;6.32;3.78;;;31.30;70.90;;;;;;5073126;28;20093;-77
2021/06/23 11:00:17;;;;;;;8.75;3.97;;;31.50;71.10;;;;;;5074392;28;20502;-76
2021/06/23 11:02:49;;;;;;;7.57;3.80;;;31.70;69.00;;;;;;5073278;28;20029;-78
2021/06/23 11:05:19;;;;;;;10.93;4.20;;;32.00;68.80;;;;;;5073104;28;20137;-77
2021/06/23 11:07:50;;;;;;;8.98;3.70;;;32.00;67.20;;;;;;5073155;28;20107;-76
2021/06/23 11:10:16;;;;;;;8.65;3.92;;;32.10;66.50;;;;;;5072009;28;20019;-75
2021/06/23 11:12:52;;;;;;;9.88;4.35;;;32.00;71.60;;;;;;5073049;28;20020;-77
2021/06/23 11:15:19;;;;;;;6.75;4.18;;;32.00;68.90;;;;;;5072459;28;20125;-78
2021/06/23 11:17:47;;;;;;;7.82;3.90;;;31.90;71.30;;;;;;5074157;28;20024;-77
2021/06/23 11:20:36;;;;;;;12.25;4.13;;;32.00;69.60;;;;;;5071897;28;20048;-77
2021/06/23 11:23:01;;;;;;;14.73;4.85;;;31.90;71.90;;;;;;5067250;28;20055;-76
2021/06/23 11:25:33;;;;;;;7.55;4.07;;;32.10;71.40;;;;;;5072735;28;20542;-76
2021/06/23 11:28:08;;;;;;;9.43;3.80;;;32.20;75.00;;;;;;5072719;28;20120;-78
2021/06/23 11:30:34;;;;;;;7.72;3.83;;;32.00;71.70;;;;;;5072106;28;20032;-77
2021/06/23 11:33:28;;;;;;;9.75;4.32;;;32.10;73.80;;;;;;5073817;28;20032;-76
2021/06/23 11:36:02;;;;;;;8.38;3.90;;;32.20;73.10;;;;;;5072482;28;20020;-78
2021/06/23 11:38:28;;;;;;;10.98;4.10;;;32.20;70.30;;;;;;5073809;28;20490;-76
2021/06/23 11:40:55;;;;;;;9.52;3.88;;;32.30;71.60;;;;;;5072391;28;20028;-76
2021/06/23 11:43:21;;;;;;;8.68;3.53;;;32.40;71.70;;;;;;5072361;28;20097;-76
2021/06/23 11:45:48;;;;;;;11.18;4.70;;;32.50;72.00;;;;;;5072526;28;20033;-76
2021/06/23 11:48:15;;;;;;;12.55;4.43;;;32.50;69.60;;;;;;5073715;28;20024;-76
2021/06/23 11:50:43;;;;;;;8.07;4.10;;;32.20;68.60;;;;;;5072294;28;20031;-78
2021/06/23 11:53:11;;;;;;;11.32;3.95;;;32.20;69.10;;;;;;5072063;28;20020;-75
2021/06/23 11:55:39;;;;;;;9.50;3.83;;;32.20;69.70;;;;;;5073602;28;20031;-82
2021/06/23 11:58:04;;;;;;;9.70;3.97;;;32.40;69.50;;;;;;5072108;28;20052;-77
2021/06/23 12:00:31;;;;;;;10.23;3.67;;;32.40;68.30;;;;;;5072210;28;20376;-76
2021/06/23 12:02:59;;;;;;;10.25;4.53;;;32.40;70.70;;;;;;5071899;28;20037;-81
2021/06/23 12:05:26;;;;;;;8.63;3.78;;;32.40;69.10;;;;;;5073251;28;20427;-77
2021/06/23 12:07:52;;;;;;;10.38;3.88;;;32.50;67.00;;;;;;5071789;28;20021;-82
2021/06/23 12:10:20;;;;;;;9.50;3.58;;;32.70;66.10;;;;;;5072847;28;20028;-77
2021/06/23 12:12:47;;;;;;;11.70;4.00;;;32.70;67.80;;;;;;5072372;28;20020;-76
2021/06/23 12:15:16;;;;;;;6.70;3.78;;;32.60;66.40;;;;;;5073472;28;20031;-77
2021/06/23 12:17:42;;;;;;;8.32;3.67;;;32.70;65.70;;;;;;5072334;28;20025;-77
2021/06/23 12:20:09;;;;;;;6.85;3.50;;;32.80;67.40;;;;;;5072390;28;20028;-80
2021/06/23 12:22:38;;;;;;;8.23;3.85;;;32.90;67.90;;;;;;5072047;28;20024;-78
2021/06/23 12:25:08;;;;;;;8.00;3.90;;;32.90;67.30;;;;;;5071581;28;20037;-78
2021/06/23 12:27:34;;;;;;;7.82;3.70;;;32.90;66.40;;;;;;5072225;28;20032;-79
2021/06/23 12:30:01;;;;;;;9.05;3.83;;;32.70;66.00;;;;;;5071285;28;20039;-79
2021/06/23 12:32:27;;;;;;;8.32;3.80;;;32.60;65.10;;;;;;5071002;28;20021;-80
2021/06/23 12:34:52;;;;;;;9.50;3.72;;;32.70;67.40;;;;;;5071197;28;20035;-80
2021/06/23 12:37:19;;;;;;;10.27;3.75;;;32.70;63.70;;;;;;5072521;28;20031;-79
2021/06/23 12:39:45;;;;;;;10.38;4.03;;;32.60;65.00;;;;;;5070959;28;20037;-80
2021/06/23 12:42:11;;;;;;;6.03;3.88;;;32.70;65.80;;;;;;5072139;28;20465;-80
2021/06/23 12:44:36;;;;;;;10.13;3.95;;;32.90;65.80;;;;;;5071159;28;20024;-80
2021/06/23 12:47:04;;;;;;;10.65;3.83;;;32.90;66.90;;;;;;5070881;28;20039;-79
2021/06/23 12:49:31;;;;;;;5.53;3.50;;;32.90;65.80;;;;;;5072895;28;20020;-79
2021/06/23 12:51:58;;;;;;;9.23;3.30;;;32.80;64.20;;;;;;5073599;28;20594;-79
2021/06/23 12:54:24;;;;;;;6.35;3.53;;;32.80;63.50;;;;;;5072588;28;20071;-79
2021/06/23 12:56:50;;;;;;;7.57;3.63;;;32.50;62.50;;;;;;5073083;28;20090;-80
2021/06/23 12:59:16;;;;;;;9.65;3.90;;;32.30;62.60;;;;;;5073833;28;20024;-80
2021/06/23 13:01:41;;;;;;;7.18;3.80;;;32.40;65.00;;;;;;5072876;28;20493;-80
2021/06/23 13:04:07;;;;;;;11.15;3.95;;;32.80;64.50;;;;;;5074367;28;20116;-88
2021/06/23 13:06:33;;;;;;;10.50;3.72;;;33.10;63.90;;;;;;5073806;28;20391;-78